Time;durP1;ratioP1;P1;durP2;ratioP2;P2;SDS_P1;SDS_P2;PMS_P1;PMS_P2;Temp;Humidity;BMP_temperature;BMP_pressure;BME280_temperature;BME280_humidity;BME280_pressure;Samples;Min_cycle;Max_cycle;Signal;HPM_P1;HPM_P2
2024/04/14 00:00:53;;;;;;;;;20.25;16.50;;;;;12.94;74.30;100535.17;112062;235;40354;-56
2024/04/14 00:03:57;;;;;;;;;15.00;13.00;;;;;12.94;74.43;100529.80;112135;239;40379;-57
2024/04/14 00:06:34;;;;;;;;;19.00;15.00;;;;;12.93;74.66;100526.98;112086;235;40506;-57
2024/04/14 00:09:09;;;;;;;;;16.67;14.33;;;;;12.87;74.71;100522.93;112007;239;169675;-58
2024/04/14 00:11:48;;;;;;;;;18.00;15.00;;;;;12.84;74.92;100522.66;112137;236;40505;-59
2024/04/14 00:14:23;;;;;;;;;19.00;15.75;;;;;12.81;74.88;100522.27;111902;240;170113;-56
2024/04/14 00:16:59;;;;;;;;;18.33;14.33;;;;;12.81;74.92;100517.80;112097;239;40284;-56
2024/04/14 00:19:40;;;;;;;;;17.00;15.00;;;;;12.80;75.02;100521.11;111993;235;170258;-59
2024/04/14 00:22:20;;;;;;;;;16.00;13.00;;;;;12.78;75.18;100519.47;112075;236;40496;-59
2024/04/14 00:24:57;;;;;;;;;19.25;15.50;;;;;12.75;75.31;100517.36;112086;236;40144;-56
2024/04/14 00:27:33;;;;;;;;;19.33;16.33;;;;;12.76;75.32;100514.07;112040;238;40486;-56
2024/04/14 00:30:10;;;;;;;;;15.50;14.00;;;;;12.77;75.43;100511.95;112045;240;41945;-55
2024/04/14 00:32:50;;;;;;;;;21.00;16.00;;;;;12.79;75.60;100505.08;111906;236;169977;-55
2024/04/14 00:35:25;;;;;;;;;18.00;15.67;;;;;12.81;75.63;100511.85;112075;239;40284;-57
2024/04/14 00:38:04;;;;;;;;;19.00;15.00;;;;;12.79;75.83;100505.70;111941;237;169449;-55
2024/04/14 00:40:39;;;;;;;;;19.00;16.00;;;;;12.83;75.86;100501.42;111950;240;40443;-55
2024/04/14 00:43:17;;;;;;;;;18.33;15.33;;;;;12.83;75.74;100501.71;111970;240;169777;-56
2024/04/14 00:45:52;;;;;;;;;15.67;14.00;;;;;12.82;75.71;100495.08;112118;237;40114;-55
2024/04/14 00:48:30;;;;;;;;;18.50;15.00;;;;;12.78;75.88;100494.02;112150;235;40486;-58
2024/04/14 00:51:09;;;;;;;;;15.00;13.50;;;;;12.76;75.83;100488.05;111909;235;169350;-58
2024/04/14 00:53:43;;;;;;;;;18.67;14.33;;;;;12.73;76.02;100484.28;112110;240;40017;-58
2024/04/14 00:56:24;;;;;;;;;15.00;13.00;;;;;12.71;76.00;100479.64;111905;239;170198;-57
2024/04/14 00:59:08;;;;;;;;;20.00;16.00;;;;;12.72;76.04;100474.68;112077;235;40763;-55
2024/04/14 01:01:51;;;;;;;;;17.00;14.00;;;;;12.72;76.13;100474.55;111908;235;170299;-55
2024/04/14 01:04:25;;;;;;;;;18.00;14.67;;;;;12.71;76.43;100471.05;112051;236;40482;-56
2024/04/14 01:07:03;;;;;;;;;15.50;12.25;;;;;12.69;76.46;100462.84;112047;236;39689;-56
2024/04/14 01:09:41;;;;;;;;;16.50;13.50;;;;;12.74;76.73;100459.27;111809;240;42908;-56
2024/04/14 01:12:19;;;;;;;;;19.00;15.00;;;;;12.80;76.61;100461.20;112050;236;40916;-57
2024/04/14 01:14:57;;;;;;;;;21.00;17.33;;;;;12.84;76.55;100454.67;111906;240;170805;-56
2024/04/14 01:17:35;;;;;;;;;17.67;14.33;;;;;12.87;76.69;100452.10;112075;235;41631;-55
2024/04/14 01:20:11;;;;;;;;;15.25;12.75;;;;;12.90;76.71;100452.83;111929;235;169444;-58
2024/04/14 01:22:46;;;;;;;;;15.67;13.33;;;;;12.90;76.58;100459.83;112059;236;41979;-57
2024/04/14 01:25:25;;;;;;;;;15.00;14.00;;;;;12.88;76.64;100462.30;111939;240;169548;-59
2024/04/14 01:28:01;;;;;;;;;19.50;16.00;;;;;12.85;76.69;100457.94;112118;236;40460;-56
2024/04/14 01:30:37;;;;;;;;;16.00;14.33;;;;;12.84;76.62;100454.77;112142;240;40223;-55
2024/04/14 01:33:15;;;;;;;;;16.50;14.00;;;;;12.83;76.76;100458.38;112008;237;170316;-59
2024/04/14 01:35:58;;;;;;;;;21.00;17.00;;;;;12.84;76.89;100454.30;112166;235;40482;-59
2024/04/14 01:38:33;;;;;;;;;15.00;12.00;;;;;12.83;76.90;100446.88;111986;235;169945;-58
2024/04/14 01:41:11;;;;;;;;;17.00;12.67;;;;;12.83;76.88;100441.02;112068;238;39878;-58
2024/04/14 01:43:46;;;;;;;;;16.33;13.67;;;;;12.84;76.97;100438.98;111953;236;170381;-56
2024/04/14 01:46:29;;;;;;;;;14.00;12.00;;;;;12.84;77.13;100439.42;112044;237;40568;-55
2024/04/14 01:49:08;;;;;;;;;17.00;14.00;;;;;12.91;77.12;100431.69;112058;237;41059;-57
2024/04/14 01:51:45;;;;;;;;;19.00;15.00;;;;;12.94;77.11;100426.77;111793;237;39982;-57
2024/04/14 01:54:22;;;;;;;;;14.50;12.00;;;;;12.97;77.26;100421.89;112064;237;41429;-56
2024/04/14 01:57:02;;;;;;;;;18.00;16.00;;;;;12.98;77.09;100413.48;111922;241;194105;-56
2024/04/14 01:59:49;;;;;;;;;18.00;13.67;;;;;13.01;77.07;100414.02;112065;240;40513;-55
2024/04/14 02:02:25;;;;;;;;;19.00;16.00;;;;;13.03;77.24;100407.67;111782;237;169145;-55
2024/04/14 02:05:02;;;;;;;;;19.00;16.00;;;;;13.04;77.16;100411.27;112043;237;41343;-55
2024/04/14 02:07:45;;;;;;;;;19.00;16.00;;;;;13.04;77.33;100407.85;111863;241;169764;-56
2024/04/14 02:10:27;;;;;;;;;19.25;14.75;;;;;13.03;77.35;100404.00;111960;238;40034;-55
2024/04/14 02:13:00;;;;;;;;;16.67;14.00;;;;;13.02;77.29;100398.28;111937;237;41001;-57
2024/04/14 02:15:41;;;;;;;;;19.00;16.00;;;;;13.00;77.42;100394.83;111780;238;169810;-57
2024/04/14 02:18:20;;;;;;;;;15.00;13.00;;;;;13.00;77.47;100393.61;112105;237;39838;-54
2024/04/14 02:20:57;;;;;;;;;17.00;15.50;;;;;13.00;77.55;100388.05;111964;237;170171;-54
2024/04/14 02:23:38;;;;;;;;;15.00;13.00;;;;;13.03;77.47;100379.56;111970;239;42554;-58
2024/04/14 02:26:23;;;;;;;;;17.50;13.50;;;;;13.09;77.50;100377.05;111737;239;170135;-57
2024/04/14 02:29:07;;;;;;;;;16.25;13.75;;;;;13.14;77.57;100378.20;111837;239;40723;-58
2024/04/14 02:31:54;;;;;;;;;18.00;15.00;;;;;13.17;77.69;100373.03;111931;238;170093;-59
2024/04/14 02:34:37;;;;;;;;;18.00;15.00;;;;;13.18;77.46;100365.64;112113;238;41987;-59
2024/04/14 02:37:14;;;;;;;;;15.00;13.00;;;;;13.17;77.45;100358.92;111632;240;170516;-59
2024/04/14 02:39:50;;;;;;;;;18.00;15.00;;;;;13.16;77.47;100362.17;111889;238;40943;-55
2024/04/14 02:42:32;;;;;;;;;17.00;15.00;;;;;13.15;77.51;100360.22;111979;237;40675;-55
2024/04/14 02:45:09;;;;;;;;;15.33;13.00;;;;;13.13;77.54;100354.54;111947;237;169422;-58
2024/04/14 02:47:56;;;;;;;;;15.00;13.50;;;;;13.09;77.51;100352.14;112103;240;42338;-59
2024/04/14 02:50:35;;;;;;;;;19.00;15.50;;;;;13.06;77.38;100352.63;111790;240;169645;-59
2024/04/14 02:53:11;;;;;;;;;16.00;13.00;;;;;13.02;77.61;100350.77;112097;237;39921;-58
2024/04/14 02:55:56;;;;;;;;;17.50;14.00;;;;;13.00;77.75;100343.30;111916;237;169617;-58
2024/04/14 02:58:38;;;;;;;;;17.00;13.00;;;;;12.97;77.73;100334.77;112038;241;39663;-58
2024/04/14 03:01:17;;;;;;;;;16.00;13.00;;;;;12.96;77.87;100332.78;111957;237;170171;-58
2024/04/14 03:03:55;;;;;;;;;17.25;13.75;;;;;12.96;77.83;100331.41;112003;241;40340;-58
2024/04/14 03:06:36;;;;;;;;;14.00;11.67;;;;;12.95;77.88;100327.48;112131;237;40515;-59
2024/04/14 03:09:12;;;;;;;;;16.00;13.00;;;;;12.93;78.04;100320.23;111805;238;171605;-59
2024/04/14 03:11:51;;;;;;;;;17.67;14.00;;;;;12.95;78.08;100318.18;112086;241;40144;-58
2024/04/14 03:14:30;;;;;;;;;17.00;14.00;;;;;13.01;78.06;100310.31;111816;237;170002;-55
2024/04/14 03:17:08;;;;;;;;;16.00;13.00;;;;;13.03;78.26;100306.55;112011;241;40188;-56
2024/04/14 03:19:51;;;;;;;;;15.00;12.00;;;;;13.06;78.20;100296.05;111908;237;170171;-58
2024/04/14 03:22:29;;;;;;;;;17.00;15.00;;;;;13.08;78.15;100288.94;111987;241;40718;-59
2024/04/14 03:25:06;;;;;;;;;20.00;18.00;;;;;13.09;78.09;100287.56;112122;241;39935;-59
2024/04/14 03:27:46;;;;;;;;;17.00;14.00;;;;;13.07;78.08;100283.45;111841;239;40906;-59
2024/04/14 03:30:31;;;;;;;;;17.00;14.67;;;;;13.06;78.18;100280.19;112045;237;40000;-59
2024/04/14 03:33:08;;;;;;;;;15.00;12.00;;;;;13.05;78.11;100282.10;111745;239;169131;-56
2024/04/14 03:35:42;;;;;;;;;14.00;12.00;;;;;13.00;78.05;100282.01;112071;241;40204;-55
2024/04/14 03:38:18;;;;;;;;;17.00;14.00;;;;;12.97;78.13;100282.23;111855;237;170179;-58
2024/04/14 03:41:01;;;;;;;;;15.00;13.00;;;;;12.94;78.17;100279.50;112037;239;40723;-59
2024/04/14 03:43:40;;;;;;;;;15.00;13.00;;;;;12.93;78.18;100277.20;111956;237;169755;-58
2024/04/14 03:46:18;;;;;;;;;13.33;10.33;;;;;12.92;78.21;100274.34;111884;239;39677;-58
2024/04/14 03:48:53;;;;;;;;;14.50;12.00;;;;;12.91;78.39;100270.38;112124;241;41078;-62
2024/04/14 03:51:27;;;;;;;;;14.00;12.00;;;;;12.95;78.32;100259.61;111775;241;170265;-60
2024/04/14 03:54:01;;;;;;;;;12.50;11.00;;;;;12.99;78.36;100257.16;112070;237;40466;-57
2024/04/14 03:56:39;;;;;;;;;14.75;11.75;;;;;13.02;78.34;100250.05;111752;239;170232;-58
2024/04/14 03:59:24;;;;;;;;;18.00;14.00;;;;;13.07;78.40;100240.46;112009;241;40499;-57
2024/04/14 04:02:03;;;;;;;;;15.67;13.00;;;;;13.12;78.44;100235.83;111827;241;169781;-58
2024/04/14 04:04:41;;;;;;;;;13.75;12.00;;;;;13.14;78.37;100226.21;111793;239;39940;-56
2024/04/14 04:07:17;;;;;;;;;16.67;13.33;;;;;13.14;78.39;100218.30;111873;238;169790;-56
2024/04/14 04:09:54;;;;;;;;;15.00;12.00;;;;;13.18;78.26;100213.91;112045;237;40476;-56
2024/04/14 04:12:27;;;;;;;;;13.50;10.75;;;;;13.20;78.24;100212.44;112024;237;40147;-56
2024/04/14 04:15:11;;;;;;;;;14.00;11.00;;;;;13.21;78.15;100209.55;111785;239;169631;-57
2024/04/14 04:17:48;;;;;;;;;14.50;11.75;;;;;13.22;78.22;100205.30;111826;242;40414;-57
2024/04/14 04:20:22;;;;;;;;;10.25;8.75;;;;;13.23;78.15;100197.79;111766;241;170507;-58
2024/04/14 04:22:59;;;;;;;;;16.00;13.00;;;;;13.27;78.14;100194.77;111851;241;41222;-56
2024/04/14 04:25:41;;;;;;;;;14.67;12.00;;;;;13.35;78.09;100198.31;111910;240;170592;-55
2024/04/14 04:28:17;;;;;;;;;13.00;11.00;;;;;13.40;77.90;100191.69;112081;237;41719;-55
2024/04/14 04:30:53;;;;;;;;;16.00;13.50;;;;;13.46;77.83;100187.27;112066;237;40568;-55
2024/04/14 04:33:31;;;;;;;;;14.00;11.67;;;;;13.51;77.71;100183.07;111956;240;170530;-56
2024/04/14 04:36:07;;;;;;;;;13.00;12.00;;;;;13.61;77.85;100179.91;112032;240;40107;-56
2024/04/14 04:38:42;;;;;;;;;18.00;16.00;;;;;13.67;77.48;100182.05;111909;237;169613;-58
2024/04/14 04:41:22;;;;;;;;;12.50;11.00;;;;;13.72;77.52;100184.88;112076;240;40109;-58
2024/04/14 04:44:03;;;;;;;;;14.00;13.00;;;;;13.75;77.54;100180.81;111928;237;169877;-55
2024/04/14 04:46:42;;;;;;;;;13.67;11.00;;;;;13.76;77.34;100173.20;112044;237;40087;-55
2024/04/14 04:49:21;;;;;;;;;11.00;9.00;;;;;13.80;77.17;100169.60;111962;237;169868;-58
2024/04/14 04:51:58;;;;;;;;;15.25;13.00;;;;;13.83;77.19;100161.15;112028;238;41117;-58
2024/04/14 04:54:39;;;;;;;;;15.75;13.00;;;;;13.90;77.11;100159.53;112072;237;41181;-56
2024/04/14 04:57:16;;;;;;;;;14.00;12.00;;;;;13.93;77.01;100157.33;111861;237;170537;-56
2024/04/14 04:59:55;;;;;;;;;13.75;11.50;;;;;14.00;77.01;100158.38;112095;237;40876;-56
2024/04/14 05:02:34;;;;;;;;;12.50;11.00;;;;;14.10;76.76;100158.52;111903;240;169933;-56
2024/04/14 05:05:18;;;;;;;;;13.33;12.00;;;;;14.20;76.71;100159.83;112055;237;40506;-57
2024/04/14 05:08:00;;;;;;;;;15.00;13.00;;;;;14.31;76.69;100154.16;111977;237;170353;-59
2024/04/14 05:10:39;;;;;;;;;14.00;12.75;;;;;14.41;76.59;100151.01;111579;237;719237;-58
2024/04/14 05:13:22;;;;;;;;;15.00;13.00;;;;;14.55;76.37;100154.63;112124;241;40769;-55
2024/04/14 05:16:08;;;;;;;;;15.67;14.00;;;;;14.66;75.98;100149.46;111815;241;40364;-56
2024/04/14 05:18:48;;;;;;;;;14.00;11.00;;;;;14.76;75.82;100141.30;112078;237;41783;-55
2024/04/14 05:21:27;;;;;;;;;15.00;12.67;;;;;14.87;75.77;100139.67;111871;237;169793;-54
2024/04/14 05:24:07;;;;;;;;;15.00;12.75;;;;;14.98;75.57;100139.86;112081;237;41039;-57
2024/04/14 05:26:42;;;;;;;;;15.00;13.67;;;;;15.06;75.38;100132.08;111902;237;169875;-57
2024/04/14 05:29:21;;;;;;;;;17.67;14.67;;;;;15.16;75.08;100135.82;112047;237;40066;-55
2024/04/14 05:32:00;;;;;;;;;16.00;14.00;;;;;15.25;74.94;100134.30;111825;237;170288;-55
2024/04/14 05:34:40;;;;;;;;;17.33;15.00;;;;;15.36;74.71;100135.05;112042;241;41468;-55
2024/04/14 05:37:15;;;;;;;;;15.00;13.00;;;;;15.45;74.44;100131.53;112036;237;39707;-55
2024/04/14 05:39:51;;;;;;;;;16.33;15.00;;;;;15.56;74.36;100128.79;112090;237;41342;-54
2024/04/14 05:42:25;;;;;;;;;20.00;17.00;;;;;15.71;74.13;100128.92;112009;237;40339;-54
2024/04/14 05:44:59;;;;;;;;;16.00;14.33;;;;;15.89;73.83;100123.35;111965;240;171002;-58
2024/04/14 05:47:35;;;;;;;;;16.50;14.75;;;;;16.19;73.49;100125.36;112062;238;41292;-58
2024/04/14 05:50:10;;;;;;;;;16.67;15.00;;;;;16.53;72.99;100117.08;111970;237;170988;-55
2024/04/14 05:52:47;;;;;;;;;19.00;15.67;;;;;16.98;72.50;100107.39;112075;237;40788;-56
2024/04/14 05:55:29;;;;;;;;;20.00;17.00;;;;;17.51;71.79;100103.69;112095;237;40577;-59
2024/04/14 05:58:06;;;;;;;;;20.00;18.00;;;;;18.03;70.54;100094.70;112092;237;39896;-57
2024/04/14 06:00:48;;;;;;;;;20.33;17.67;;;;;18.34;69.77;100086.95;112066;240;41315;-57
2024/04/14 06:03:30;;;;;;;;;16.00;14.00;;;;;18.54;69.09;100081.79;111924;238;169452;-55
2024/04/14 06:06:08;;;;;;;;;24.00;20.00;;;;;18.88;68.30;100074.39;112022;240;40055;-55
2024/04/14 06:08:48;;;;;;;;;18.00;16.00;;;;;19.20;67.35;100071.24;111980;237;170010;-58
2024/04/14 06:11:27;;;;;;;;;17.33;15.33;;;;;19.51;66.40;100069.63;112071;237;40596;-59
2024/04/14 06:14:07;;;;;;;;;19.67;17.67;;;;;19.81;66.01;100065.27;111898;237;170281;-55
2024/04/14 06:16:45;;;;;;;;;22.00;19.00;;;;;20.31;65.02;100059.20;111896;241;41788;-54
2024/04/14 06:19:22;;;;;;;;;19.00;16.33;;;;;20.56;63.61;100050.69;112089;237;41091;-58
2024/04/14 06:21:56;;;;;;;;;18.00;15.00;;;;;20.63;63.28;100062.27;112016;238;41476;-59
2024/04/14 06:24:32;;;;;;;;;18.00;16.00;;;;;20.57;62.78;100063.33;112073;237;40510;-59
2024/04/14 06:27:07;;;;;;;;;21.00;19.00;;;;;20.40;62.14;100065.92;111871;237;170089;-58
2024/04/14 06:29:47;;;;;;;;;19.00;17.00;;;;;20.24;61.38;100064.69;112065;240;40645;-56
2024/04/14 06:32:27;;;;;;;;;18.67;17.00;;;;;20.16;61.80;100059.54;111897;237;170068;-55
2024/04/14 06:35:04;;;;;;;;;22.00;18.00;;;;;20.17;61.99;100055.20;112122;237;40225;-55
2024/04/14 06:37:39;;;;;;;;;21.00;18.00;;;;;20.08;61.26;100055.90;111930;240;169963;-55
2024/04/14 06:40:14;;;;;;;;;17.00;16.00;;;;;19.98;61.77;100052.46;112091;237;41901;-54
2024/04/14 06:42:52;;;;;;;;;17.33;15.67;;;;;20.05;61.45;100045.61;112098;237;41206;-56
2024/04/14 06:45:26;;;;;;;;;17.25;15.25;;;;;20.09;61.65;100040.11;111972;240;170068;-56
2024/04/14 06:48:04;;;;;;;;;17.00;15.25;;;;;20.21;61.69;100040.27;112104;240;40164;-55
2024/04/14 06:50:41;;;;;;;;;16.00;15.00;;;;;20.27;61.56;100038.92;111910;237;170159;-55
2024/04/14 06:53:23;;;;;;;;;16.00;14.00;;;;;20.26;61.53;100030.02;112156;239;39678;-55
2024/04/14 06:56:06;;;;;;;;;18.00;15.50;;;;;20.27;61.51;100028.11;111929;237;170448;-55
2024/04/14 06:58:42;;;;;;;;;18.00;15.00;;;;;20.29;61.54;100022.49;112088;237;41879;-55
2024/04/14 07:01:17;;;;;;;;;17.00;14.50;;;;;20.44;61.17;100010.91;112069;237;40005;-56
2024/04/14 07:03:52;;;;;;;;;14.50;13.50;;;;;20.52;60.56;100014.05;111913;237;169897;-57
2024/04/14 07:06:26;;;;;;;;;17.00;15.00;;;;;20.55;60.34;100008.80;112061;237;40729;-57
2024/04/14 07:09:00;;;;;;;;;16.33;15.00;;;;;20.62;59.95;100003.63;111907;237;170031;-56
2024/04/14 07:11:43;;;;;;;;;19.00;17.00;;;;;20.62;60.07;99991.77;112092;237;41145;-56
2024/04/14 07:14:21;;;;;;;;;16.00;15.00;;;;;20.74;59.66;99985.26;111928;240;169771;-57
2024/04/14 07:17:00;;;;;;;;;18.00;15.00;;;;;20.86;59.62;99985.05;112042;237;40456;-58
2024/04/14 07:19:44;;;;;;;;;19.00;16.00;;;;;20.98;59.46;99983.64;111951;237;170253;-55
2024/04/14 07:22:24;;;;;;;;;19.00;16.50;;;;;21.12;59.14;99983.34;112067;241;40224;-55
2024/04/14 07:25:01;;;;;;;;;17.00;15.00;;;;;21.28;58.76;99991.97;112111;237;41061;-58
2024/04/14 07:27:47;;;;;;;;;16.67;15.00;;;;;21.37;58.33;99990.42;111931;237;170404;-57
2024/04/14 07:30:25;;;;;;;;;18.25;16.50;;;;;21.35;58.59;100000.31;112210;240;39935;-59
2024/04/14 07:33:07;;;;;;;;;16.00;15.00;;;;;21.45;58.57;100002.14;112051;237;170192;-55
2024/04/14 07:35:50;;;;;;;;;15.00;13.50;;;;;21.57;58.25;99998.17;112070;240;40272;-54
2024/04/14 07:38:30;;;;;;;;;17.00;15.00;;;;;21.66;57.35;99987.86;111936;237;169776;-55
2024/04/14 07:41:09;;;;;;;;;17.00;16.00;;;;;21.60;57.27;99984.71;112033;237;40588;-56
2024/04/14 07:43:51;;;;;;;;;16.25;14.50;;;;;21.63;57.05;99980.92;111918;240;170050;-54
2024/04/14 07:46:27;;;;;;;;;16.00;14.33;;;;;21.80;57.53;99983.33;112054;237;42176;-54
2024/04/14 07:49:08;;;;;;;;;19.00;16.00;;;;;22.30;57.16;99980.17;111874;241;40634;-58
2024/04/14 07:51:47;;;;;;;;;16.00;14.00;;;;;22.86;56.71;99982.65;111903;237;170116;-57
2024/04/14 07:54:30;;;;;;;;;18.00;15.00;;;;;23.30;56.43;99983.53;112080;241;40130;-55
2024/04/14 07:57:09;;;;;;;;;17.00;15.67;;;;;23.84;55.91;99972.70;111872;237;170142;-56
2024/04/14 07:59:46;;;;;;;;;16.00;14.00;;;;;24.52;55.28;99966.14;112075;237;40196;-59
2024/04/14 08:02:21;;;;;;;;;16.00;15.00;;;;;24.97;53.46;99964.52;111873;237;170247;-56
2024/04/14 08:05:02;;;;;;;;;16.00;15.00;;;;;25.09;53.12;99968.30;112096;237;40301;-56
2024/04/14 08:07:47;;;;;;;;;14.00;12.00;;;;;25.38;52.55;99969.26;111891;237;169916;-58
2024/04/14 08:10:27;;;;;;;;;15.00;13.75;;;;;25.68;51.41;99974.39;112176;241;40552;-59
2024/04/14 08:13:06;;;;;;;;;13.00;12.00;;;;;26.11;51.31;99966.75;112152;241;41944;-58
2024/04/14 08:15:49;;;;;;;;;13.00;13.00;;;;;26.42;50.82;99967.02;111970;237;170425;-60
2024/04/14 08:18:30;;;;;;;;;13.00;12.00;;;;;26.92;50.25;99960.86;112130;237;39793;-56
2024/04/14 08:21:08;;;;;;;;;15.67;14.00;;;;;27.31;49.07;99956.02;111914;237;169768;-55
2024/04/14 08:23:42;;;;;;;;;11.00;10.00;;;;;27.90;48.43;99952.88;112107;237;40619;-56
2024/04/14 08:26:16;;;;;;;;;13.00;11.00;;;;;28.24;47.75;99952.82;111910;237;170044;-55
2024/04/14 08:28:50;;;;;;;;;13.00;12.00;;;;;27.76;46.08;99956.37;112095;237;41768;-55
2024/04/14 08:31:27;;;;;;;;;14.00;13.00;;;;;26.97;46.34;99953.40;112062;237;39914;-57
2024/04/14 08:34:01;;;;;;;;;13.00;12.00;;;;;26.93;46.67;99949.38;111754;239;43745;-59
2024/04/14 08:36:37;;;;;;;;;13.67;12.00;;;;;27.11;46.33;99955.17;112049;237;40321;-59
2024/04/14 08:39:17;;;;;;;;;15.00;13.67;;;;;26.57;45.77;99960.14;111946;237;169719;-59
2024/04/14 08:42:03;;;;;;;;;12.00;10.00;;;;;25.64;45.65;99959.06;112046;237;40467;-60
2024/04/14 08:44:42;;;;;;;;;13.00;12.00;;;;;25.35;46.62;99962.93;111968;237;169699;-61
2024/04/14 08:47:20;;;;;;;;;12.00;11.00;;;;;24.97;46.84;99970.58;112093;237;40009;-60
2024/04/14 08:50:03;;;;;;;;;12.00;11.00;;;;;24.44;47.50;99971.46;111942;241;169924;-58
2024/04/14 08:52:44;;;;;;;;;15.00;13.00;;;;;24.17;47.80;99967.80;112130;237;40907;-59
2024/04/14 08:55:22;;;;;;;;;13.00;12.00;;;;;24.40;48.30;99961.17;112094;237;39835;-58
2024/04/14 08:57:57;;;;;;;;;13.67;12.00;;;;;24.21;48.15;99970.63;112007;237;169617;-57
2024/04/14 09:00:35;;;;;;;;;15.00;14.00;;;;;23.76;48.57;99969.52;112088;241;40032;-57
2024/04/14 09:03:15;;;;;;;;;16.00;15.00;;;;;23.24;49.25;99971.92;112020;237;169623;-57
2024/04/14 09:05:53;;;;;;;;;15.00;12.00;;;;;22.72;50.08;99983.44;112080;237;40011;-57
2024/04/14 09:08:35;;;;;;;;;16.00;14.00;;;;;22.28;50.86;99970.17;111877;237;169453;-57
2024/04/14 09:11:11;;;;;;;;;15.00;14.00;;;;;21.98;51.69;99973.85;112018;240;39838;-57
2024/04/14 09:13:47;;;;;;;;;15.00;14.00;;;;;21.96;52.63;99974.57;111917;237;169945;-57
2024/04/14 09:16:26;;;;;;;;;18.00;15.00;;;;;22.06;53.08;99974.79;112007;237;40216;-57
2024/04/14 09:19:10;;;;;;;;;17.00;15.00;;;;;21.96;53.63;99971.92;112083;241;41330;-57
2024/04/14 09:21:50;;;;;;;;;14.00;12.67;;;;;22.15;54.07;99969.56;111862;237;169990;-57
2024/04/14 09:24:25;;;;;;;;;15.75;14.75;;;;;22.79;54.35;99976.42;112096;239;39883;-54
2024/04/14 09:27:07;;;;;;;;;14.00;13.50;;;;;23.73;54.15;99971.39;111948;238;169931;-54
2024/04/14 09:29:45;;;;;;;;;15.50;14.00;;;;;24.47;53.31;99960.71;112078;240;40637;-55
2024/04/14 09:32:29;;;;;;;;;13.50;13.00;;;;;24.97;52.48;99962.69;111898;237;169807;-56
2024/04/14 09:35:12;;;;;;;;;15.00;13.00;;;;;25.31;51.40;99968.91;112073;237;41596;-57
2024/04/14 09:37:50;;;;;;;;;15.00;13.00;;;;;25.49;51.03;99973.38;111869;237;169898;-56
2024/04/14 09:40:24;;;;;;;;;13.00;13.00;;;;;25.48;50.31;99976.48;111871;241;41850;-56
2024/04/14 09:42:59;;;;;;;;;15.00;13.33;;;;;25.67;50.01;99978.98;112126;241;40210;-58
2024/04/14 09:45:35;;;;;;;;;14.00;12.00;;;;;25.72;49.26;99977.77;111760;238;169999;-59
2024/04/14 09:48:12;;;;;;;;;14.00;13.00;;;;;25.69;49.10;99976.93;112147;241;42030;-55
2024/04/14 09:50:47;;;;;;;;;14.00;13.00;;;;;25.43;49.02;99971.63;111805;237;170011;-56
2024/04/14 09:53:22;;;;;;;;;17.00;16.00;;;;;25.43;49.24;99967.09;112001;238;39679;-57
2024/04/14 09:56:06;;;;;;;;;13.00;12.00;;;;;25.45;49.35;99968.60;111859;237;170185;-57
2024/04/14 09:58:48;;;;;;;;;16.00;15.00;;;;;25.50;49.33;99962.59;111909;237;40258;-56
2024/04/14 10:01:31;;;;;;;;;14.67;13.00;;;;;25.42;49.08;99958.73;112041;237;41225;-56
2024/04/14 10:04:09;;;;;;;;;16.00;14.00;;;;;25.34;48.92;99953.87;112037;239;40647;-54
2024/04/14 10:06:58;;;;;;;;;15.67;13.00;;;;;25.19;48.58;99962.75;112203;236;40249;-55
2024/04/14 10:09:35;;;;;;;;;15.00;13.00;;;;;24.83;48.44;99953.56;111945;238;170037;-58
2024/04/14 10:12:10;;;;;;;;;16.00;15.00;;;;;24.34;48.72;99954.61;112027;240;41351;-57
2024/04/14 10:14:56;;;;;;;;;16.00;15.00;;;;;24.09;48.91;99966.73;111907;240;169953;-56
2024/04/14 10:17:35;;;;;;;;;15.00;13.00;;;;;23.76;49.35;99974.80;112084;241;40731;-56
2024/04/14 10:20:16;;;;;;;;;16.00;14.00;;;;;23.44;49.89;99985.07;111915;237;170073;-54
2024/04/14 10:22:53;;;;;;;;;13.00;12.00;;;;;23.05;50.56;99979.06;112022;237;40795;-58
2024/04/14 10:25:33;;;;;;;;;14.00;13.00;;;;;22.89;51.06;99979.72;112201;237;39725;-58
2024/04/14 10:28:09;;;;;;;;;13.50;12.50;;;;;22.61;51.50;99979.98;111889;238;42218;-58
2024/04/14 10:30:44;;;;;;;;;15.75;14.00;;;;;22.62;52.02;99989.19;111915;242;40542;-58
2024/04/14 10:33:25;;;;;;;;;12.00;12.00;;;;;22.71;52.56;99993.04;111678;240;170964;-57
2024/04/14 10:36:06;;;;;;;;;15.00;12.50;;;;;22.78;52.13;99990.66;112069;238;41237;-57
2024/04/14 10:38:48;;;;;;;;;14.00;13.00;;;;;22.79;51.59;99980.85;111820;242;170521;-55
2024/04/14 10:41:25;;;;;;;;;15.00;13.00;;;;;22.83;50.81;99979.96;111986;242;40355;-56
2024/04/14 10:44:16;;;;;;;;;12.67;11.00;;;;;22.96;50.20;99975.45;111933;238;170749;-55
2024/04/14 10:46:57;;;;;;;;;13.50;12.00;;;;;22.86;49.81;99964.48;112027;237;40006;-54
2024/04/14 10:49:36;;;;;;;;;12.00;11.00;;;;;23.19;49.75;99979.12;112081;237;40183;-55
2024/04/14 10:52:11;;;;;;;;;11.00;10.00;;;;;23.45;48.94;99980.46;111780;239;40850;-56
2024/04/14 10:54:51;;;;;;;;;12.00;11.00;;;;;23.51;48.13;99978.10;112103;238;42336;-56
2024/04/14 10:57:30;;;;;;;;;12.00;11.00;;;;;23.52;47.51;99983.12;111666;239;169579;-56
2024/04/14 11:00:10;;;;;;;;;10.00;9.00;;;;;23.33;47.37;99983.69;112025;237;40722;-54
2024/04/14 11:02:52;;;;;;;;;10.00;9.25;;;;;23.21;47.58;99972.11;111848;241;170404;-54
2024/04/14 11:05:30;;;;;;;;;13.00;12.00;;;;;23.40;47.92;99968.33;112028;237;41810;-58
2024/04/14 11:08:05;;;;;;;;;11.50;10.00;;;;;23.82;48.04;99957.38;111928;237;170184;-57
2024/04/14 11:10:48;;;;;;;;;11.00;10.00;;;;;24.04;47.57;99962.23;111957;237;40399;-57
2024/04/14 11:13:28;;;;;;;;;10.00;10.00;;;;;24.06;47.25;99968.23;112055;241;39663;-55
2024/04/14 11:16:05;;;;;;;;;10.00;9.50;;;;;24.02;47.08;99966.82;111764;241;169585;-55
2024/04/14 11:18:43;;;;;;;;;11.00;10.67;;;;;23.86;46.94;99968.23;112102;238;40559;-58
2024/04/14 11:21:24;;;;;;;;;12.00;10.00;;;;;23.63;46.89;99964.90;112035;237;169756;-59
2024/04/14 11:24:01;;;;;;;;;9.25;8.50;;;;;23.42;46.97;99969.77;112157;240;41127;-57
2024/04/14 11:26:38;;;;;;;;;11.00;10.00;;;;;23.24;46.98;99977.60;111983;236;169517;-57
2024/04/14 11:29:18;;;;;;;;;9.00;8.33;;;;;22.95;46.65;99982.95;112152;236;40364;-55
2024/04/14 11:31:56;;;;;;;;;11.00;10.00;;;;;22.75;46.45;99984.61;111990;237;169841;-56
2024/04/14 11:34:31;;;;;;;;;8.00;8.00;;;;;22.49;46.24;99994.76;112085;237;40225;-56
2024/04/14 11:37:08;;;;;;;;;8.00;7.00;;;;;22.28;46.89;99997.46;112066;237;40864;-55
2024/04/14 11:39:45;;;;;;;;;8.00;8.00;;;;;21.94;46.72;99997.05;111697;241;169393;-57
2024/04/14 11:42:23;;;;;;;;;9.25;8.50;;;;;21.91;46.89;99995.86;112073;241;40072;-57
2024/04/14 11:45:00;;;;;;;;;11.00;10.00;;;;;21.97;47.20;99993.89;111791;237;169070;-56
2024/04/14 11:47:37;;;;;;;;;9.00;8.00;;;;;22.20;47.25;99995.16;112062;237;39692;-56
2024/04/14 11:50:12;;;;;;;;;11.50;10.50;;;;;22.32;47.43;99992.35;111879;237;169546;-55
2024/04/14 11:52:46;;;;;;;;;8.00;7.00;;;;;22.44;46.87;99991.23;111844;239;41839;-55
2024/04/14 11:55:27;;;;;;;;;8.00;7.50;;;;;22.28;46.83;99990.09;112052;237;40767;-54
2024/04/14 11:58:03;;;;;;;;;8.00;8.00;;;;;22.10;47.05;100003.85;111897;237;169794;-54
2024/04/14 12:00:37;;;;;;;;;8.00;7.00;;;;;22.09;47.22;100002.31;112079;237;40544;-55